createdAt,value
2023-01-25T00:00:46.932Z,20.35
2023-01-25T00:01:49.615Z,19.23
2023-01-25T00:02:51.978Z,18.60
2023-01-25T00:03:54.383Z,18.75
2023-01-25T00:04:56.723Z,19.05
2023-01-25T00:06:01.046Z,17.40
2023-01-25T00:07:03.353Z,15.65
2023-01-25T00:08:05.912Z,16.25
2023-01-25T00:09:09.915Z,18.35
2023-01-25T00:10:12.215Z,17.17
2023-01-25T00:11:17.085Z,15.18
2023-01-25T00:12:19.404Z,15.65
2023-01-25T00:13:21.683Z,16.92
2023-01-25T00:14:24.844Z,18.52
2023-01-25T00:15:27.124Z,21.90
2023-01-25T00:16:29.538Z,18.33
2023-01-25T00:17:31.813Z,18.17
2023-01-25T00:18:34.096Z,20.35
2023-01-25T00:19:36.403Z,20.90
2023-01-25T00:20:38.716Z,19.20
2023-01-25T00:21:41.259Z,19.77
2023-01-25T00:22:43.495Z,17.75
2023-01-25T00:23:45.773Z,18.70
2023-01-25T00:24:48.107Z,16.90
2023-01-25T00:25:57.891Z,18.40
2023-01-25T00:27:02.143Z,17.38
2023-01-25T00:28:04.607Z,17.48
2023-01-25T00:29:07.310Z,18.40
2023-01-25T00:30:10.697Z,18.33
2023-01-25T00:31:27.229Z,15.63
2023-01-25T00:32:41.001Z,19.00
2023-01-25T00:34:24.698Z,19.05
2023-01-25T00:35:32.564Z,14.95
2023-01-25T00:36:37.790Z,14.82
2023-01-25T00:37:43.806Z,17.08
2023-01-25T00:38:48.028Z,17.23
2023-01-25T00:39:50.699Z,17.13
2023-01-25T00:40:52.971Z,16.08
2023-01-25T00:41:55.574Z,17.15
2023-01-25T00:43:00.762Z,15.10
2023-01-25T00:44:03.080Z,15.70
2023-01-25T00:45:06.595Z,14.18
2023-01-25T00:46:09.850Z,14.70
2023-01-25T00:47:12.833Z,13.65
2023-01-25T00:48:15.140Z,15.50
2023-01-25T00:49:25.801Z,14.05
2023-01-25T00:50:28.206Z,14.07
2023-01-25T00:51:33.156Z,13.82
2023-01-25T00:52:35.529Z,12.68
2023-01-25T00:53:38.127Z,13.35
2023-01-25T00:54:40.843Z,12.32
2023-01-25T00:55:52.156Z,13.05
2023-01-25T00:56:56.477Z,12.85
2023-01-25T00:57:58.934Z,12.52
2023-01-25T00:59:01.353Z,13.18
2023-01-25T01:00:04.672Z,13.20
2023-01-25T01:01:07.063Z,11.43
2023-01-25T01:02:09.433Z,11.63
2023-01-25T01:03:11.683Z,12.70
2023-01-25T01:04:14.361Z,13.88
2023-01-25T01:05:16.882Z,12.18
2023-01-25T01:06:19.304Z,12.38
2023-01-25T01:07:21.573Z,12.40
2023-01-25T01:08:23.845Z,11.27
2023-01-25T01:09:26.393Z,11.98
2023-01-25T01:10:28.773Z,10.57
2023-01-25T01:11:31.825Z,10.10
2023-01-25T01:12:34.321Z,10.18
2023-01-25T01:13:37.490Z,10.88
2023-01-25T01:14:39.885Z,10.70
2023-01-25T01:15:42.257Z,9.90
2023-01-25T01:16:44.909Z,11.50
2023-01-25T01:17:47.471Z,12.55
2023-01-25T01:18:51.044Z,11.25
2023-01-25T01:19:53.601Z,10.32
2023-01-25T01:20:56.114Z,11.98
2023-01-25T01:21:58.364Z,12.13
2023-01-25T01:23:00.828Z,12.00
2023-01-25T01:24:03.618Z,10.82
2023-01-25T01:25:06.934Z,9.60
2023-01-25T01:26:12.606Z,10.60
2023-01-25T01:27:14.823Z,10.20
2023-01-25T01:28:17.100Z,11.88
2023-01-25T01:29:19.429Z,10.80
2023-01-25T01:30:21.680Z,14.65
2023-01-25T01:31:24.524Z,16.48
2023-01-25T01:32:38.487Z,12.65
2023-01-25T01:33:40.992Z,13.38
2023-01-25T01:34:44.552Z,13.70
2023-01-25T01:35:47.577Z,11.80
2023-01-25T01:36:49.939Z,11.65
2023-01-25T01:37:52.428Z,12.02
2023-01-25T01:38:54.823Z,11.75
2023-01-25T01:39:57.123Z,10.82
2023-01-25T01:40:59.957Z,11.40
2023-01-25T01:42:02.422Z,11.65
2023-01-25T01:43:16.010Z,11.75
2023-01-25T01:44:22.738Z,10.73
2023-01-25T01:45:49.619Z,9.75
2023-01-25T01:46:58.772Z,11.18
2023-01-25T01:48:04.588Z,10.02
2023-01-25T01:49:21.724Z,10.95
2023-01-25T01:50:24.907Z,10.95
2023-01-25T01:51:43.485Z,12.35
2023-01-25T01:52:51.073Z,9.55
2023-01-25T01:53:59.853Z,11.13
2023-01-25T01:55:08.076Z,11.90
2023-01-25T01:56:16.115Z,10.43
2023-01-25T01:57:26.601Z,9.90
2023-01-25T01:58:31.940Z,11.45
2023-01-25T01:59:57.781Z,10.75
2023-01-25T02:01:00.563Z,9.88
2023-01-25T02:02:03.807Z,10.85
2023-01-25T02:03:06.830Z,8.35
2023-01-25T02:04:09.890Z,9.15
2023-01-25T02:05:21.857Z,9.32
2023-01-25T02:06:39.786Z,10.55
2023-01-25T02:07:42.211Z,10.95
2023-01-25T02:08:44.847Z,11.73
2023-01-25T02:09:48.074Z,11.02
2023-01-25T02:10:50.924Z,11.10
2023-01-25T02:11:55.114Z,11.32
2023-01-25T02:12:59.699Z,11.68
2023-01-25T02:14:02.742Z,12.75
2023-01-25T02:15:06.291Z,13.65
2023-01-25T02:16:16.789Z,15.85
2023-01-25T02:17:35.439Z,15.98
2023-01-25T02:18:37.699Z,14.82
2023-01-25T02:19:55.863Z,17.10
2023-01-25T02:21:00.147Z,15.50
2023-01-25T02:22:10.343Z,17.88
2023-01-25T02:23:35.903Z,15.68
2023-01-25T02:24:41.817Z,14.75
2023-01-25T02:25:44.361Z,17.60
2023-01-25T02:26:47.072Z,15.00
2023-01-25T02:28:08.080Z,14.82
2023-01-25T02:29:11.320Z,14.60
2023-01-25T02:30:13.779Z,15.68
2023-01-25T02:31:16.903Z,15.55
2023-01-25T02:32:19.286Z,18.13
2023-01-25T02:33:24.580Z,14.77
2023-01-25T02:34:26.838Z,15.25
2023-01-25T02:35:50.402Z,14.60
2023-01-25T02:36:53.186Z,12.85
2023-01-25T02:37:55.480Z,13.73
2023-01-25T02:39:06.878Z,15.15
2023-01-25T02:40:10.209Z,17.50
2023-01-25T02:41:18.522Z,14.82
2023-01-25T02:42:20.801Z,14.00
2023-01-25T02:43:28.159Z,15.32
2023-01-25T02:44:34.425Z,14.05
2023-01-25T02:45:39.179Z,14.95
2023-01-25T02:46:42.842Z,17.45
2023-01-25T02:47:46.495Z,16.42
2023-01-25T02:48:48.969Z,14.80
2023-01-25T02:49:51.203Z,14.65
2023-01-25T02:50:54.284Z,15.48
2023-01-25T02:51:57.542Z,15.73
2023-01-25T02:53:00.191Z,14.82
2023-01-25T02:54:06.030Z,13.57
2023-01-25T02:55:09.333Z,14.50
2023-01-25T02:56:11.971Z,16.55
2023-01-25T02:57:14.243Z,19.75
2023-01-25T02:58:18.782Z,19.05
2023-01-25T02:59:21.990Z,20.98
2023-01-25T03:00:28.231Z,18.73
2023-01-25T03:01:30.820Z,18.50
2023-01-25T03:02:33.603Z,16.52
2023-01-25T03:03:35.983Z,17.15
2023-01-25T03:04:39.133Z,16.70
2023-01-25T03:05:41.430Z,15.73
2023-01-25T03:06:43.676Z,17.95
2023-01-25T03:07:46.703Z,19.45
2023-01-25T03:08:49.677Z,16.60
2023-01-25T03:09:51.969Z,15.75
2023-01-25T03:11:02.489Z,16.15
2023-01-25T03:12:06.534Z,15.88
2023-01-25T03:13:11.254Z,16.67
2023-01-25T03:14:13.710Z,15.15
2023-01-25T03:15:16.123Z,15.55
2023-01-25T03:16:18.686Z,17.00
2023-01-25T03:17:21.010Z,17.60
2023-01-25T03:18:23.468Z,16.02
2023-01-25T03:19:26.301Z,13.70
2023-01-25T03:20:29.114Z,14.10
2023-01-25T03:21:31.596Z,12.27
2023-01-25T03:22:33.855Z,13.00
2023-01-25T03:23:36.630Z,11.80
2023-01-25T03:24:39.688Z,13.45
2023-01-25T03:25:42.883Z,14.60
2023-01-25T03:27:08.997Z,18.17
2023-01-25T03:28:16.437Z,18.73
2023-01-25T03:29:18.734Z,17.25
2023-01-25T03:30:23.343Z,13.75
2023-01-25T03:31:25.754Z,14.93
2023-01-25T03:32:28.048Z,13.48
2023-01-25T03:33:30.619Z,14.32
2023-01-25T03:34:33.638Z,15.98
2023-01-25T03:35:35.999Z,15.93
2023-01-25T03:36:39.920Z,17.20
2023-01-25T03:37:42.385Z,16.60
2023-01-25T03:38:44.919Z,16.55
2023-01-25T03:39:47.341Z,16.05
2023-01-25T03:40:50.575Z,18.13
2023-01-25T03:41:53.336Z,17.73
2023-01-25T03:42:55.703Z,16.80
2023-01-25T03:43:58.234Z,20.52
2023-01-25T03:45:00.587Z,17.80
2023-01-25T03:46:03.501Z,16.17
2023-01-25T03:47:07.530Z,15.05
2023-01-25T03:48:10.487Z,15.52
2023-01-25T03:49:13.903Z,15.18
2023-01-25T03:50:16.815Z,14.38
2023-01-25T03:51:20.357Z,15.75
2023-01-25T03:52:24.656Z,14.13
2023-01-25T03:53:31.003Z,14.90
2023-01-25T03:54:42.756Z,15.00
2023-01-25T03:55:46.089Z,15.38
2023-01-25T03:56:48.485Z,14.77
2023-01-25T03:57:56.751Z,16.48
2023-01-25T03:58:59.068Z,17.38
2023-01-25T04:00:02.020Z,18.10
2023-01-25T04:01:07.908Z,16.60
2023-01-25T04:02:10.463Z,15.60
2023-01-25T04:03:12.839Z,17.50
2023-01-25T04:04:15.359Z,16.05
2023-01-25T04:05:19.921Z,17.77
2023-01-25T04:06:23.037Z,15.95
2023-01-25T04:07:26.000Z,16.85
2023-01-25T04:08:28.868Z,17.02
2023-01-25T04:09:32.167Z,17.35
2023-01-25T04:10:35.374Z,14.88
2023-01-25T04:11:37.906Z,16.02
2023-01-25T04:12:40.819Z,14.55
2023-01-25T04:13:43.049Z,14.98
2023-01-25T04:14:47.459Z,14.40
2023-01-25T04:15:55.951Z,16.40
2023-01-25T04:17:24.840Z,14.43
2023-01-25T04:18:36.411Z,16.48
2023-01-25T04:19:39.086Z,16.05
2023-01-25T04:20:46.079Z,17.40
2023-01-25T04:21:48.347Z,15.48
2023-01-25T04:22:50.772Z,16.45
2023-01-25T04:23:54.981Z,15.65
2023-01-25T04:24:57.503Z,13.85
2023-01-25T04:26:07.615Z,14.57
2023-01-25T04:27:10.265Z,14.80
2023-01-25T04:28:35.976Z,16.23
2023-01-25T04:29:41.422Z,14.48
2023-01-25T04:30:48.514Z,15.05
2023-01-25T04:31:51.361Z,13.85
2023-01-25T04:32:54.325Z,14.00
2023-01-25T04:34:01.289Z,13.40
2023-01-25T04:35:04.298Z,11.70
2023-01-25T04:36:07.510Z,12.85
2023-01-25T04:37:09.795Z,12.38
2023-01-25T04:38:21.416Z,13.13
2023-01-25T04:39:23.741Z,11.55
2023-01-25T04:40:27.637Z,12.40
2023-01-25T04:41:30.855Z,12.25
2023-01-25T04:42:33.499Z,12.48
2023-01-25T04:43:35.772Z,12.23
2023-01-25T04:44:42.978Z,12.15
2023-01-25T04:45:45.849Z,12.48
2023-01-25T04:46:57.658Z,11.45
2023-01-25T04:48:03.145Z,13.43
2023-01-25T04:49:06.330Z,13.35
2023-01-25T04:50:10.517Z,11.93
2023-01-25T04:51:14.623Z,11.52
2023-01-25T04:52:17.462Z,10.48
2023-01-25T04:53:19.721Z,11.98
2023-01-25T04:54:22.086Z,12.27
2023-01-25T04:55:24.408Z,11.80
2023-01-25T04:56:28.142Z,11.65
2023-01-25T04:57:31.652Z,11.63
2023-01-25T04:58:33.977Z,11.93
2023-01-25T04:59:37.252Z,13.05
2023-01-25T05:00:39.921Z,14.32
2023-01-25T05:01:43.266Z,13.30
2023-01-25T05:02:46.107Z,13.63
2023-01-25T05:03:48.474Z,14.50
2023-01-25T05:04:59.616Z,15.00
2023-01-25T05:06:02.547Z,16.77
2023-01-25T05:07:04.819Z,14.68
2023-01-25T05:08:07.159Z,13.20
2023-01-25T05:09:10.459Z,12.75
2023-01-25T05:10:13.131Z,12.43
2023-01-25T05:11:26.850Z,11.27
2023-01-25T05:12:42.269Z,12.35
2023-01-25T05:13:44.581Z,11.80
2023-01-25T05:14:56.119Z,12.10
2023-01-25T05:15:58.378Z,10.77
2023-01-25T05:17:00.943Z,14.63
2023-01-25T05:18:03.770Z,12.00
2023-01-25T05:19:10.066Z,13.20
2023-01-25T05:20:22.978Z,12.75
2023-01-25T05:21:45.150Z,13.30
2023-01-25T05:22:48.986Z,11.07
2023-01-25T05:23:51.288Z,12.70
2023-01-25T05:24:54.025Z,10.95
2023-01-25T05:26:15.392Z,12.85
2023-01-25T05:27:19.705Z,12.95
2023-01-25T05:28:30.932Z,11.82
2023-01-25T05:29:51.001Z,11.80
2023-01-25T05:30:54.000Z,11.65
2023-01-25T05:32:00.051Z,13.15
2023-01-25T05:33:02.644Z,11.57
2023-01-25T05:34:06.064Z,12.48
2023-01-25T05:35:08.987Z,11.57
2023-01-25T05:36:11.515Z,11.32
2023-01-25T05:37:17.642Z,11.95
2023-01-25T05:38:21.842Z,11.20
2023-01-25T05:39:24.495Z,15.65
2023-01-25T05:40:27.903Z,12.18
2023-01-25T05:41:33.347Z,12.00
2023-01-25T05:42:35.658Z,12.35
2023-01-25T05:43:38.675Z,11.30
2023-01-25T05:44:43.294Z,11.73
2023-01-25T05:45:53.080Z,10.73
2023-01-25T05:46:55.796Z,11.25
2023-01-25T05:47:58.785Z,10.45
2023-01-25T05:49:01.177Z,12.52
2023-01-25T05:50:04.560Z,10.73
2023-01-25T05:51:21.110Z,11.45
2023-01-25T05:52:23.375Z,10.57
2023-01-25T05:53:27.568Z,11.82
2023-01-25T05:54:30.259Z,10.95
2023-01-25T05:55:37.892Z,11.40
2023-01-25T05:56:45.384Z,12.23
2023-01-25T05:57:47.731Z,18.38
2023-01-25T05:58:58.073Z,16.65
2023-01-25T06:00:00.359Z,15.63
2023-01-25T06:01:04.958Z,14.32
2023-01-25T06:02:16.440Z,13.68
2023-01-25T06:03:19.652Z,13.32
2023-01-25T06:04:23.237Z,12.00
2023-01-25T06:05:25.618Z,13.60
2023-01-25T06:06:28.013Z,12.85
2023-01-25T06:07:36.258Z,13.55
2023-01-25T06:08:38.549Z,12.93
2023-01-25T06:09:41.249Z,11.77
2023-01-25T06:10:43.511Z,12.65
2023-01-25T06:11:45.994Z,15.27
2023-01-25T06:12:48.999Z,13.00
2023-01-25T06:13:51.837Z,13.43
2023-01-25T06:14:56.114Z,12.65
2023-01-25T06:15:58.368Z,14.15
2023-01-25T06:17:26.665Z,13.55
2023-01-25T06:18:51.994Z,12.05
2023-01-25T06:20:01.110Z,13.43
2023-01-25T06:21:11.777Z,14.48
2023-01-25T06:22:14.189Z,12.75
2023-01-25T06:23:16.557Z,15.73
2023-01-25T06:24:18.856Z,12.65
2023-01-25T06:25:21.192Z,16.58
2023-01-25T06:26:23.445Z,16.40
2023-01-25T06:27:25.713Z,16.60
2023-01-25T06:28:31.599Z,17.02
2023-01-25T06:29:33.914Z,21.27
2023-01-25T06:30:36.319Z,17.55
2023-01-25T06:31:38.692Z,16.83
2023-01-25T06:32:41.082Z,15.88
2023-01-25T06:33:44.394Z,17.27
2023-01-25T06:34:46.792Z,16.65
2023-01-25T06:36:00.020Z,15.13
2023-01-25T06:37:02.309Z,14.48
2023-01-25T06:38:04.543Z,15.63
2023-01-25T06:39:06.856Z,14.85
2023-01-25T06:40:09.870Z,13.15
2023-01-25T06:41:12.950Z,14.13
2023-01-25T06:42:15.216Z,12.95
2023-01-25T06:43:17.463Z,12.50
2023-01-25T06:44:19.716Z,14.23
2023-01-25T06:45:22.084Z,12.40
2023-01-25T06:46:24.438Z,11.70
2023-01-25T06:47:26.752Z,13.65
2023-01-25T06:48:30.132Z,12.52
2023-01-25T06:49:32.423Z,12.00
2023-01-25T06:50:34.681Z,11.90
2023-01-25T06:51:36.942Z,13.90
2023-01-25T06:52:39.192Z,13.18
2023-01-25T06:53:44.155Z,12.98
2023-01-25T06:54:46.483Z,12.05
2023-01-25T06:55:48.810Z,12.70
2023-01-25T06:56:51.047Z,13.43
2023-01-25T06:57:53.291Z,12.50
2023-01-25T06:58:55.562Z,13.93
2023-01-25T06:59:57.789Z,14.18
2023-01-25T07:01:05.761Z,13.05
2023-01-25T07:02:10.464Z,13.40
2023-01-25T07:03:12.713Z,13.25
2023-01-25T07:04:14.916Z,12.48
2023-01-25T07:05:17.967Z,13.43
2023-01-25T07:06:20.902Z,13.38
2023-01-25T07:07:23.153Z,13.32
2023-01-25T07:08:25.524Z,12.60
2023-01-25T07:09:27.855Z,13.15
2023-01-25T07:10:31.396Z,14.18
2023-01-25T07:11:35.671Z,13.15
2023-01-25T07:12:38.243Z,13.83
2023-01-25T07:13:42.326Z,13.25
2023-01-25T07:14:44.591Z,14.07
2023-01-25T07:15:53.349Z,12.13
2023-01-25T07:16:55.623Z,12.82
2023-01-25T07:18:03.175Z,12.93
2023-01-25T07:19:13.743Z,12.98
2023-01-25T07:20:16.276Z,14.60
2023-01-25T07:21:21.863Z,13.23
2023-01-25T07:22:24.174Z,14.82
2023-01-25T07:23:27.818Z,13.93
2023-01-25T07:24:30.165Z,13.38
2023-01-25T07:25:32.392Z,13.10
2023-01-25T07:26:34.729Z,15.13
2023-01-25T07:27:36.980Z,14.13
2023-01-25T07:28:39.247Z,13.98
2023-01-25T07:29:41.471Z,17.50
2023-01-25T07:30:45.059Z,16.55
2023-01-25T07:31:47.600Z,16.17
2023-01-25T07:32:49.971Z,14.98
2023-01-25T07:33:57.452Z,13.13
2023-01-25T07:34:59.757Z,15.40
2023-01-25T07:36:03.829Z,15.02
2023-01-25T07:37:06.144Z,13.40
2023-01-25T07:38:08.504Z,13.45
2023-01-25T07:39:11.873Z,12.88
2023-01-25T07:40:15.337Z,13.73
2023-01-25T07:41:17.587Z,14.15
2023-01-25T07:42:19.803Z,13.30
2023-01-25T07:43:42.624Z,12.35
2023-01-25T07:44:46.387Z,13.05
2023-01-25T07:45:48.787Z,13.50
2023-01-25T07:46:51.061Z,12.60
2023-01-25T07:47:54.354Z,13.68
2023-01-25T07:48:58.911Z,13.00
2023-01-25T07:50:01.197Z,12.32
2023-01-25T07:51:11.706Z,14.20
2023-01-25T07:52:13.980Z,13.18
2023-01-25T07:53:17.020Z,13.48
2023-01-25T07:54:19.234Z,14.43
2023-01-25T07:55:22.309Z,13.30
2023-01-25T07:56:30.542Z,13.90
2023-01-25T07:57:32.902Z,12.27
2023-01-25T07:58:35.169Z,12.02
2023-01-25T07:59:37.467Z,13.70
2023-01-25T08:00:40.400Z,13.18
2023-01-25T08:01:42.741Z,16.90
2023-01-25T08:02:44.958Z,14.45
2023-01-25T08:03:47.879Z,18.10
2023-01-25T08:04:51.349Z,16.08
2023-01-25T08:05:55.147Z,13.57
2023-01-25T08:06:57.495Z,20.20
2023-01-25T08:07:59.724Z,20.20
2023-01-25T08:09:19.981Z,17.27
2023-01-25T08:10:22.382Z,13.98
2023-01-25T08:11:27.631Z,17.10
2023-01-25T08:12:29.929Z,15.90
2023-01-25T08:13:32.186Z,15.07
2023-01-25T08:14:34.869Z,14.55
2023-01-25T08:15:37.623Z,16.10
2023-01-25T08:16:40.143Z,19.20
2023-01-25T08:17:42.458Z,14.80
2023-01-25T08:18:48.580Z,15.02
2023-01-25T08:19:50.807Z,14.30
2023-01-25T08:20:53.164Z,14.48
2023-01-25T08:21:55.453Z,18.98
2023-01-25T08:22:57.719Z,13.38
2023-01-25T08:24:02.381Z,16.95
2023-01-25T08:25:05.329Z,15.32
2023-01-25T08:26:10.055Z,13.52
2023-01-25T08:27:12.304Z,16.13
2023-01-25T08:28:14.611Z,14.15
2023-01-25T08:29:17.738Z,14.80
2023-01-25T08:30:20.477Z,20.02
2023-01-25T08:31:28.704Z,21.67
2023-01-25T08:32:30.967Z,19.65
2023-01-25T08:33:33.439Z,19.05
2023-01-25T08:34:36.015Z,16.48
2023-01-25T08:35:38.281Z,19.75
2023-01-25T08:36:40.602Z,18.73
2023-01-25T08:37:42.890Z,19.58
2023-01-25T08:38:46.992Z,23.23
2023-01-25T08:39:49.285Z,19.08
2023-01-25T08:40:52.038Z,17.67
2023-01-25T08:41:54.878Z,18.63
2023-01-25T08:42:57.207Z,18.23
2023-01-25T08:43:59.875Z,18.80
2023-01-25T08:45:02.831Z,17.60
2023-01-25T08:46:05.615Z,16.17
2023-01-25T08:47:08.028Z,20.27
2023-01-25T08:48:13.028Z,21.73
2023-01-25T08:49:15.564Z,16.58
2023-01-25T08:50:17.997Z,15.07
2023-01-25T08:51:20.235Z,17.45
2023-01-25T08:52:23.019Z,20.83
2023-01-25T08:53:28.635Z,15.82
2023-01-25T08:54:30.977Z,17.38
2023-01-25T08:55:35.986Z,16.75
2023-01-25T08:56:42.472Z,19.38
2023-01-25T08:57:44.752Z,20.42
2023-01-25T08:58:48.562Z,21.60
2023-01-25T08:59:50.817Z,18.85
2023-01-25T09:00:53.064Z,20.08
2023-01-25T09:01:55.376Z,20.65
2023-01-25T09:02:58.680Z,18.73
2023-01-25T09:04:01.017Z,18.35
2023-01-25T09:05:03.485Z,18.90
2023-01-25T09:06:06.511Z,15.20
2023-01-25T09:07:08.797Z,21.67
2023-01-25T09:08:11.498Z,17.17
2023-01-25T09:09:13.869Z,17.85
2023-01-25T09:10:16.449Z,18.23
2023-01-25T09:11:21.084Z,19.40
2023-01-25T09:12:23.306Z,20.48
2023-01-25T09:13:25.630Z,14.57
2023-01-25T09:14:27.870Z,17.38
2023-01-25T09:15:30.174Z,18.10
2023-01-25T09:16:32.567Z,18.90
2023-01-25T09:17:38.958Z,16.95
2023-01-25T09:18:44.140Z,18.27
2023-01-25T09:19:48.052Z,17.63
2023-01-25T09:20:50.330Z,16.95
2023-01-25T09:21:52.607Z,17.52
2023-01-25T09:22:55.377Z,17.80
2023-01-25T09:24:06.021Z,14.50
2023-01-25T09:25:09.314Z,15.60
2023-01-25T09:26:12.096Z,14.60
2023-01-25T09:27:14.356Z,14.60
2023-01-25T09:28:16.623Z,18.27
2023-01-25T09:29:18.912Z,14.30
2023-01-25T09:30:24.596Z,14.05
2023-01-25T09:31:31.633Z,14.48
2023-01-25T09:32:54.395Z,14.07
2023-01-25T09:33:58.152Z,12.95
2023-01-25T09:35:00.485Z,16.45
2023-01-25T09:36:03.267Z,15.52
2023-01-25T09:37:05.555Z,18.10
2023-01-25T09:38:07.836Z,16.80
2023-01-25T09:39:13.897Z,16.40
2023-01-25T09:40:22.609Z,16.23
2023-01-25T09:42:14.149Z,18.10
2023-01-25T09:43:41.157Z,18.20
2023-01-25T09:44:49.647Z,17.33
2023-01-25T09:45:51.965Z,16.95
2023-01-25T09:47:01.888Z,17.50
2023-01-25T09:48:41.950Z,16.95
2023-01-25T09:50:17.402Z,19.60
2023-01-25T09:51:53.567Z,18.35
2023-01-25T09:53:13.543Z,21.23
2023-01-25T09:54:18.349Z,16.38
2023-01-25T09:55:24.365Z,18.85
2023-01-25T09:56:30.600Z,19.92
2023-01-25T09:57:39.823Z,19.40
2023-01-25T09:58:48.600Z,19.13
2023-01-25T09:59:52.864Z,15.88
2023-01-25T10:01:21.611Z,16.75
2023-01-25T10:02:30.565Z,17.85
2023-01-25T10:04:01.113Z,20.58
2023-01-25T10:05:13.332Z,16.17
2023-01-25T10:06:17.691Z,15.77
2023-01-25T10:07:34.634Z,21.10
2023-01-25T10:08:59.523Z,16.88
2023-01-25T10:10:09.910Z,21.05
2023-01-25T10:11:20.880Z,15.50
2023-01-25T10:12:25.147Z,15.90
2023-01-25T10:13:31.849Z,16.25
2023-01-25T10:14:35.774Z,16.23
2023-01-25T10:15:43.223Z,14.38
2023-01-25T10:16:48.160Z,14.05
2023-01-25T10:18:04.051Z,13.85
2023-01-25T10:19:25.361Z,18.13
2023-01-25T10:21:04.668Z,20.40
2023-01-25T10:22:15.295Z,16.20
2023-01-25T10:23:54.734Z,19.38
2023-01-25T10:25:06.102Z,17.45
2023-01-25T10:26:28.150Z,16.80
2023-01-25T10:27:35.939Z,18.20
2023-01-25T10:29:04.051Z,15.57
2023-01-25T10:30:21.869Z,18.90
2023-01-25T10:31:34.396Z,21.73
2023-01-25T10:32:42.005Z,18.08
2023-01-25T10:33:50.429Z,20.98
2023-01-25T10:34:57.244Z,20.65
2023-01-25T10:36:03.849Z,20.83
2023-01-25T10:37:20.412Z,21.02
2023-01-25T10:38:36.772Z,20.27
2023-01-25T10:39:45.552Z,19.38
2023-01-25T10:41:02.237Z,18.90
2023-01-25T10:42:11.803Z,18.55
2023-01-25T10:43:18.674Z,20.02
2023-01-25T10:44:27.904Z,20.10
2023-01-25T10:45:30.380Z,19.38
2023-01-25T10:46:32.928Z,20.10
2023-01-25T10:47:39.659Z,19.90
2023-01-25T10:48:41.950Z,19.45
2023-01-25T10:49:52.131Z,20.80
2023-01-25T10:50:57.367Z,19.30
2023-01-25T10:52:32.987Z,18.42
2023-01-25T10:53:39.373Z,16.17
2023-01-25T10:54:42.052Z,16.38
2023-01-25T10:55:55.330Z,16.30
2023-01-25T10:56:57.632Z,17.08
2023-01-25T10:57:59.919Z,17.70
2023-01-25T10:59:25.132Z,20.55
2023-01-25T11:00:37.109Z,17.33
2023-01-25T11:01:39.394Z,16.42
2023-01-25T11:02:47.372Z,14.68
2023-01-25T11:03:49.805Z,16.90
2023-01-25T11:04:52.063Z,17.63
2023-01-25T11:05:56.422Z,14.73
2023-01-25T11:06:59.665Z,15.35
2023-01-25T11:08:37.199Z,13.02
2023-01-25T11:09:39.958Z,13.38
2023-01-25T11:10:43.736Z,12.50
2023-01-25T11:11:56.403Z,11.02
2023-01-25T11:13:13.881Z,12.82
2023-01-25T11:14:17.898Z,18.25
2023-01-25T11:15:24.683Z,13.90
2023-01-25T11:16:37.670Z,16.25
2023-01-25T11:17:39.927Z,15.32
2023-01-25T11:18:51.238Z,13.82
2023-01-25T11:20:19.066Z,12.88
2023-01-25T11:21:25.399Z,15.10
2023-01-25T11:22:28.776Z,17.02
2023-01-25T11:23:34.734Z,17.27
2023-01-25T11:24:37.135Z,16.02
2023-01-25T11:25:39.447Z,14.95
2023-01-25T11:26:41.913Z,15.30
2023-01-25T11:27:44.158Z,13.15
2023-01-25T11:28:50.207Z,17.83
2023-01-25T11:30:15.798Z,14.00
2023-01-25T11:31:21.974Z,13.80
2023-01-25T11:32:25.573Z,13.20
2023-01-25T11:33:28.181Z,13.13
2023-01-25T11:34:30.803Z,12.60
2023-01-25T11:35:35.192Z,12.07
2023-01-25T11:37:01.726Z,17.98
2023-01-25T11:38:15.781Z,13.68
2023-01-25T11:39:17.992Z,14.40
2023-01-25T11:40:47.061Z,13.80
2023-01-25T11:41:54.291Z,11.77
2023-01-25T11:43:03.984Z,13.38
2023-01-25T11:44:15.730Z,12.63
2023-01-25T11:45:36.778Z,17.60
2023-01-25T11:46:50.510Z,17.50
2023-01-25T11:48:24.167Z,17.00
2023-01-25T11:49:42.017Z,17.85
2023-01-25T11:51:06.033Z,16.70
2023-01-25T11:52:14.478Z,16.52
2023-01-25T11:53:34.745Z,15.77
2023-01-25T11:54:51.231Z,18.25
2023-01-25T11:56:01.975Z,15.60
2023-01-25T11:57:42.441Z,16.33
2023-01-25T11:59:15.765Z,14.13
2023-01-25T12:00:39.014Z,16.92
2023-01-25T12:02:03.094Z,15.82
2023-01-25T12:03:23.020Z,14.80
2023-01-25T12:04:40.133Z,14.63
2023-01-25T12:06:05.637Z,16.52
2023-01-25T12:07:21.108Z,14.95
2023-01-25T12:08:38.743Z,14.50
2023-01-25T12:10:23.714Z,14.07
2023-01-25T12:11:36.661Z,12.07
2023-01-25T12:12:50.157Z,12.75
2023-01-25T12:14:09.070Z,14.80
2023-01-25T12:15:32.536Z,10.48
2023-01-25T12:16:41.999Z,9.73
2023-01-25T12:18:01.835Z,11.77
2023-01-25T12:19:19.402Z,9.90
2023-01-25T12:20:40.592Z,10.65
2023-01-25T12:22:04.803Z,11.73
2023-01-25T12:23:12.810Z,9.20
2023-01-25T12:24:39.877Z,8.35
2023-01-25T12:26:04.361Z,10.43
2023-01-25T12:27:34.452Z,15.65
2023-01-25T12:28:51.045Z,11.27
2023-01-25T12:30:18.986Z,10.35
2023-01-25T12:31:31.997Z,13.93
2023-01-25T12:32:40.952Z,11.68
2023-01-25T12:33:46.598Z,10.55
2023-01-25T12:34:56.277Z,10.63
2023-01-25T12:36:11.538Z,9.98
2023-01-25T12:37:21.116Z,11.07
2023-01-25T12:38:58.792Z,12.05
2023-01-25T12:40:13.856Z,11.95
2023-01-25T12:41:23.599Z,16.65
2023-01-25T12:42:32.668Z,16.50
2023-01-25T12:43:43.772Z,12.55
2023-01-25T12:45:00.568Z,17.23
2023-01-25T12:46:14.462Z,15.90
2023-01-25T12:47:33.323Z,13.77
2023-01-25T12:48:41.599Z,13.45
2023-01-25T12:50:13.936Z,12.52
2023-01-25T12:51:18.323Z,13.52
2023-01-25T12:52:29.353Z,13.05
2023-01-25T12:53:42.409Z,14.05
2023-01-25T12:54:47.642Z,13.88
2023-01-25T12:55:50.669Z,12.15
2023-01-25T12:57:07.397Z,12.90
2023-01-25T12:58:38.101Z,10.85
2023-01-25T12:59:45.894Z,10.13
2023-01-25T13:01:25.976Z,11.45
2023-01-25T13:03:03.716Z,14.35
2023-01-25T13:04:26.264Z,11.75
2023-01-25T13:05:37.849Z,11.70
2023-01-25T13:06:55.615Z,13.30
2023-01-25T13:08:20.323Z,13.05
2023-01-25T13:09:50.838Z,12.15
2023-01-25T13:11:00.151Z,14.98
2023-01-25T13:12:04.630Z,13.80
2023-01-25T13:13:27.707Z,11.73
2023-01-25T13:14:40.682Z,12.15
2023-01-25T13:15:45.722Z,10.75
2023-01-25T13:17:08.509Z,14.55
2023-01-25T13:18:32.832Z,12.20
2023-01-25T13:19:35.167Z,13.10
2023-01-25T13:20:40.520Z,11.95
2023-01-25T13:21:45.388Z,11.77
2023-01-25T13:22:58.882Z,12.88
2023-01-25T13:24:21.142Z,12.95
2023-01-25T13:25:24.151Z,12.50
2023-01-25T13:26:28.428Z,13.57
2023-01-25T13:27:34.712Z,11.25
2023-01-25T13:28:43.377Z,11.75
2023-01-25T13:29:47.189Z,12.57
2023-01-25T13:30:53.597Z,13.05
2023-01-25T13:31:58.980Z,13.65
2023-01-25T13:33:04.411Z,11.45
2023-01-25T13:34:10.568Z,12.20
2023-01-25T13:35:43.771Z,11.85
2023-01-25T13:36:46.686Z,11.43
2023-01-25T13:38:03.633Z,12.75
2023-01-25T13:39:24.517Z,11.75
2023-01-25T13:40:35.847Z,11.65
2023-01-25T13:42:01.422Z,13.15
2023-01-25T13:43:19.069Z,11.07
2023-01-25T13:44:28.601Z,11.15
2023-01-25T13:45:34.909Z,10.60
2023-01-25T13:46:37.385Z,9.52
2023-01-25T13:47:42.702Z,10.25
2023-01-25T13:48:59.684Z,11.57
2023-01-25T13:50:22.739Z,12.95
2023-01-25T13:51:27.801Z,10.68
2023-01-25T13:52:33.460Z,9.68
2023-01-25T13:53:39.599Z,10.30
2023-01-25T13:54:46.444Z,9.50
2023-01-25T13:55:53.952Z,8.48
2023-01-25T13:57:30.163Z,11.07
2023-01-25T13:58:37.377Z,8.93
2023-01-25T13:59:39.742Z,9.70
2023-01-25T14:00:53.401Z,11.73
2023-01-25T14:01:57.436Z,9.88
2023-01-25T14:02:59.847Z,8.32
2023-01-25T14:04:05.076Z,10.10
2023-01-25T14:05:18.900Z,11.75
2023-01-25T14:06:24.792Z,12.07
2023-01-25T14:07:33.131Z,10.30
2023-01-25T14:08:36.311Z,10.70
2023-01-25T14:09:43.275Z,13.07
2023-01-25T14:10:45.974Z,10.38
2023-01-25T14:12:00.470Z,12.05
2023-01-25T14:13:02.747Z,10.57
2023-01-25T14:14:27.614Z,11.77
2023-01-25T14:15:32.106Z,13.82
2023-01-25T14:16:34.402Z,12.13
2023-01-25T14:17:36.787Z,11.35
2023-01-25T14:18:39.153Z,10.55
2023-01-25T14:19:44.643Z,12.05
2023-01-25T14:20:49.232Z,11.27
2023-01-25T14:22:25.781Z,10.35
2023-01-25T14:23:29.083Z,10.85
2023-01-25T14:24:31.365Z,10.57
2023-01-25T14:25:33.728Z,10.98
2023-01-25T14:26:38.139Z,11.65
2023-01-25T14:27:59.564Z,10.10